Time;durP1;ratioP1;P1;durP2;ratioP2;P2;SDS_P1;SDS_P2;PMS_P1;PMS_P2;Temp;Humidity;BMP_temperature;BMP_pressure;BME280_temperature;BME280_humidity;BME280_pressure;Samples;Min_cycle;Max_cycle;Signal;HPM_P1;HPM_P2
2023/05/11 00:33:43;;;;;;;25.65;20.88;;;;;;;11.20;100.00;101349.97;6167295;23;20012;-70
2023/05/11 00:36:09;;;;;;;29.42;21.25;;;;;;;11.19;100.00;101348.22;6104533;23;20021;-70
2023/05/11 00:38:35;;;;;;;25.90;20.13;;;;;;;11.16;100.00;101353.47;6104573;23;20033;-70
2023/05/11 00:41:02;;;;;;;23.17;19.42;;;;;;;11.14;100.00;101355.25;6081099;23;20017;-70
2023/05/11 00:43:27;;;;;;;24.85;18.58;;;;;;;11.13;100.00;101353.50;6079994;23;20014;-70
2023/05/11 00:45:53;;;;;;;26.48;21.00;;;;;;;11.11;100.00;101350.03;6104319;23;20052;-70
2023/05/11 00:48:18;;;;;;;23.42;19.73;;;;;;;11.06;100.00;101353.56;6128399;23;20076;-70
2023/05/11 00:50:44;;;;;;;24.70;18.58;;;;;;;11.07;100.00;101354.41;6103774;23;20013;-70
2023/05/11 00:53:10;;;;;;;32.55;20.55;;;;;;;11.03;100.00;101348.31;6079815;23;20013;-70
2023/05/11 00:55:36;;;;;;;33.20;21.92;;;;;;;11.02;100.00;101362.31;6080599;23;20013;-70
2023/05/11 00:58:04;;;;;;;26.95;21.48;;;;;;;11.01;100.00;101347.44;6103738;23;20013;-70
2023/05/11 01:00:31;;;;;;;30.75;21.77;;;;;;;11.01;100.00;101354.47;6104925;23;20005;-70
2023/05/11 01:02:57;;;;;;;34.35;24.83;;;;;;;11.00;100.00;101358.81;6128493;23;20431;-70
2023/05/11 01:05:31;;;;;;;34.35;24.92;;;;;;;10.99;100.00;101359.72;6103869;23;20032;-70
2023/05/11 01:08:08;;;;;;;32.25;23.70;;;;;;;10.98;100.00;101364.97;6127734;23;20037;-70
2023/05/11 01:10:44;;;;;;;35.08;25.73;;;;;;;10.97;100.00;101358.84;6128088;23;20013;-69
2023/05/11 01:13:22;;;;;;;33.28;25.77;;;;;;;10.98;100.00;101368.44;6128024;23;20013;-70
2023/05/11 01:15:50;;;;;;;35.80;26.45;;;;;;;10.97;100.00;101363.22;6128427;23;20002;-70
2023/05/11 01:18:33;;;;;;;37.72;26.35;;;;;;;10.98;100.00;101360.59;6128294;23;20536;-70
2023/05/11 01:21:01;;;;;;;33.42;26.17;;;;;;;10.99;100.00;101357.09;6127104;23;20013;-70
2023/05/11 01:23:51;;;;;;;34.83;26.77;;;;;;;11.04;100.00;101363.16;6103578;23;20368;-70
2023/05/11 01:26:35;;;;;;;;;;;;;;;11.08;100.00;101362.28;6128657;23;20012;-70
2023/05/11 01:29:20;;;;;;;33.95;25.30;;;;;;;11.08;100.00;101362.28;6127867;23;19912;-70
2023/05/11 01:31:46;;;;;;;37.08;26.92;;;;;;;11.10;100.00;101354.38;6128511;23;20016;-70
2023/05/11 01:34:16;;;;;;;38.38;26.77;;;;;;;11.13;100.00;101361.38;6103445;23;20013;-70
2023/05/11 01:36:47;;;;;;;37.78;27.02;;;;;;;11.14;100.00;101360.50;6128148;23;19997;-70
2023/05/11 01:39:15;;;;;;;37.95;28.10;;;;;;;11.18;100.00;101362.25;6127701;23;20462;-70
2023/05/11 01:41:43;;;;;;;39.63;27.92;;;;;;;11.17;100.00;101358.72;6154515;23;20424;-70
2023/05/11 01:44:12;;;;;;;39.25;28.38;;;;;;;11.16;100.00;101358.72;6103935;23;20005;-70
2023/05/11 01:46:38;;;;;;;37.58;27.25;;;;;;;11.21;100.00;101362.22;6104495;23;20080;-70
2023/05/11 01:49:08;;;;;;;39.58;28.20;;;;;;;11.20;100.00;101366.56;6080154;23;20009;-70
2023/05/11 01:51:36;;;;;;;43.87;28.27;;;;;;;11.23;100.00;101361.34;6128246;23;20088;-70
2023/05/11 01:54:05;;;;;;;41.67;27.38;;;;;;;11.24;100.00;101370.91;6127769;23;20028;-70
2023/05/11 01:56:34;;;;;;;42.03;28.80;;;;;;;11.24;100.00;101365.66;6128400;23;19998;-70
2023/05/11 01:59:01;;;;;;;43.33;28.48;;;;;;;11.24;100.00;101370.06;6153953;23;20009;-70
2023/05/11 02:01:30;;;;;;;42.53;28.15;;;;;;;11.23;100.00;101378.81;6104332;23;20017;-72
2023/05/11 02:03:59;;;;;;;41.75;28.35;;;;;;;11.22;100.00;101379.66;6128312;23;20006;-72
2023/05/11 02:06:28;;;;;;;37.47;27.10;;;;;;;11.24;100.00;101377.94;6127488;23;20002;-72
2023/05/11 02:08:55;;;;;;;38.92;27.65;;;;;;;11.24;100.00;101383.19;6103874;23;20032;-70
2023/05/11 02:11:25;;;;;;;41.05;28.77;;;;;;;11.26;100.00;101386.66;6103699;23;20105;-70
2023/05/11 02:13:55;;;;;;;39.80;27.85;;;;;;;11.27;100.00;101383.16;6127821;23;20002;-70
2023/05/11 02:16:22;;;;;;;40.22;26.70;;;;;;;11.26;100.00;101370.91;6128239;23;20006;-80
2023/05/11 02:18:49;;;;;;;40.13;27.50;;;;;;;11.26;100.00;101374.44;6104234;23;20093;-79
2023/05/11 02:21:16;;;;;;;41.33;26.83;;;;;;;11.26;100.00;101370.91;6103580;23;20068;-79
2023/05/11 02:23:43;;;;;;;37.63;26.40;;;;;;;11.25;100.00;101374.44;6102618;23;20020;-78
2023/05/11 02:26:15;;;;;;;40.42;27.35;;;;;;;11.21;100.00;101372.72;6128234;23;20019;-79
2023/05/11 02:28:41;;;;;;;37.60;26.17;;;;;;;11.19;100.00;101366.56;6127407;23;20021;-79
2023/05/11 02:31:15;;;;;;;37.78;25.90;;;;;;;11.15;100.00;101370.09;6103896;23;20455;-78
2023/05/11 02:33:46;;;;;;;38.00;26.85;;;;;;;11.12;100.00;101373.63;6128072;23;20084;-79
2023/05/11 02:36:16;;;;;;;37.75;24.98;;;;;;;11.07;100.00;101362.28;6127854;23;20001;-78
2023/05/11 02:38:44;;;;;;;39.92;26.13;;;;;;;11.01;100.00;101360.56;6127514;23;20005;-78
2023/05/11 02:41:13;;;;;;;33.70;25.35;;;;;;;10.97;100.00;101363.22;6103602;23;20005;-78
2023/05/11 02:43:46;;;;;;;36.85;24.55;;;;;;;10.93;100.00;101354.47;6127198;23;20008;-78
2023/05/11 02:46:16;;;;;;;38.60;26.13;;;;;;;10.88;100.00;101358.88;6127972;23;20013;-78
2023/05/11 02:48:49;;;;;;;38.88;25.80;;;;;;;10.85;100.00;101358.91;6128113;23;20009;-78
2023/05/11 02:51:17;;;;;;;37.15;25.13;;;;;;;10.79;100.00;101364.16;6127603;23;20008;-78
2023/05/11 02:53:44;;;;;;;39.97;26.50;;;;;;;10.78;100.00;101363.28;6127552;23;20005;-78
2023/05/11 02:56:10;;;;;;;41.83;26.83;;;;;;;10.72;100.00;101358.94;6127715;23;20005;-78
2023/05/11 02:58:37;;;;;;;42.40;26.85;;;;;;;10.64;100.00;101368.59;6103899;23;20312;-78
2023/05/11 03:01:06;;;;;;;39.50;25.30;;;;;;;10.55;100.00;101366.88;6105374;23;20499;-79
2023/05/11 03:03:32;;;;;;;50.92;25.08;;;;;;;10.50;100.00;101368.66;6129623;23;20010;-78
2023/05/11 03:05:57;;;;;;;46.10;27.50;;;;;;;10.47;100.00;101367.78;6129177;23;20010;-78
2023/05/11 03:08:23;;;;;;;44.65;28.27;;;;;;;10.47;100.00;101365.16;6105018;23;20009;-78
2023/05/11 03:10:50;;;;;;;48.42;29.38;;;;;;;10.44;100.00;101367.78;6105303;23;20084;-78
2023/05/11 03:13:18;;;;;;;35.95;25.60;;;;;;;10.42;100.00;101364.31;6129172;23;20013;-78
2023/05/11 03:15:45;;;;;;;34.67;24.77;;;;;;;10.40;100.00;101361.66;6105825;23;20392;-78
2023/05/11 03:18:11;;;;;;;35.72;24.15;;;;;;;10.43;100.00;101363.41;6105233;23;20010;-71
2023/05/11 03:20:40;;;;;;;34.67;23.80;;;;;;;10.43;100.00;101373.91;6080939;23;20019;-70
2023/05/11 03:23:07;;;;;;;33.63;24.45;;;;;;;10.48;100.00;101369.53;6128748;23;20025;-70
2023/05/11 03:25:33;;;;;;;41.70;26.13;;;;;;;10.48;100.00;101373.00;6104499;23;20017;-70
2023/05/11 03:27:59;;;;;;;38.60;25.85;;;;;;;10.50;100.00;101370.38;6104599;23;20049;-71
2023/05/11 03:30:26;;;;;;;44.85;29.20;;;;;;;10.52;100.00;101372.13;6104989;23;20017;-70
2023/05/11 03:32:52;;;;;;;53.83;31.95;;;;;;;10.56;100.00;101378.25;6105292;23;20086;-70
2023/05/11 03:35:18;;;;;;;55.92;32.08;;;;;;;10.58;100.00;101379.09;6129507;23;20449;-70
2023/05/11 03:37:44;;;;;;;56.35;31.85;;;;;;;10.56;100.00;101376.47;6128883;23;20036;-71
2023/05/11 03:40:12;;;;;;;48.63;30.40;;;;;;;10.59;100.00;101373.00;6104805;23;20016;-70
2023/05/11 03:42:39;;;;;;;52.60;31.40;;;;;;;10.56;100.00;101384.34;6128523;23;20017;-70
2023/05/11 03:45:07;;;;;;;53.75;32.28;;;;;;;10.53;100.00;101378.22;6104536;23;20103;-70
2023/05/11 03:47:34;;;;;;;62.13;34.60;;;;;;;10.53;100.00;101372.97;6104135;23;20009;-70
2023/05/11 03:50:02;;;;;;;55.95;33.78;;;;;;;10.55;100.00;101373.88;6104840;23;20013;-70
2023/05/11 03:52:28;;;;;;;58.55;35.70;;;;;;;10.55;100.00;101381.72;6128969;23;20013;-71
2023/05/11 03:54:54;;;;;;;59.53;35.08;;;;;;;10.59;100.00;101373.00;6080504;23;20020;-70
2023/05/11 03:57:20;;;;;;;54.53;34.40;;;;;;;10.61;100.00;101378.22;6081003;23;20137;-70
2023/05/11 03:59:45;;;;;;;57.53;35.05;;;;;;;10.63;100.00;101373.84;6080080;23;20098;-71
2023/05/11 04:02:11;;;;;;;54.00;33.85;;;;;;;10.63;100.00;101374.72;6105043;23;20012;-70
2023/05/11 04:04:37;;;;;;;61.22;36.15;;;;;;;10.64;100.00;101365.97;6104534;23;20021;-70
2023/05/11 04:07:02;;;;;;;54.30;33.50;;;;;;;10.68;100.00;101366.84;6080466;23;20017;-71
2023/05/11 04:09:28;;;;;;;59.97;34.25;;;;;;;10.68;100.00;101366.84;6103658;23;20498;-70
2023/05/11 04:11:53;;;;;;;63.15;36.88;;;;;;;10.69;100.00;101374.69;6080210;23;20194;-70
2023/05/11 04:14:19;;;;;;;60.95;37.17;;;;;;;10.70;100.00;101375.56;6079836;23;20013;-70
2023/05/11 04:16:45;;;;;;;60.45;36.95;;;;;;;10.71;100.00;101377.31;6081083;23;20077;-70
2023/05/11 04:19:11;;;;;;;61.55;36.65;;;;;;;10.70;100.00;101375.56;6104602;23;20013;-70
2023/05/11 04:21:36;;;;;;;59.42;36.80;;;;;;;10.71;100.00;101370.31;6103956;23;20021;-71
2023/05/11 04:24:02;;;;;;;58.70;36.38;;;;;;;10.73;100.00;101376.44;6104004;23;20161;-71
2023/05/11 04:26:27;;;;;;;67.97;37.40;;;;;;;10.73;100.00;101375.53;6128909;23;20010;-70
2023/05/11 04:28:53;;;;;;;66.70;37.13;;;;;;;10.73;100.00;101372.91;6128552;23;20018;-71
2023/05/11 04:31:18;;;;;;;66.45;37.88;;;;;;;10.75;100.00;101373.81;6103763;23;20044;-70
2023/05/11 04:33:44;;;;;;;66.00;37.90;;;;;;;10.75;100.00;101382.53;6079842;23;20063;-70
2023/05/11 04:36:09;;;;;;;63.75;38.50;;;;;;;10.77;100.00;101379.03;6103554;23;20454;-70
2023/05/11 04:38:34;;;;;;;68.63;39.03;;;;;;;10.77;100.00;101381.66;6103765;23;20013;-70
2023/05/11 04:41:04;;;;;;;66.43;37.67;;;;;;;10.77;100.00;101381.66;6104456;23;20020;-70
2023/05/11 04:43:30;;;;;;;66.47;39.22;;;;;;;10.78;100.00;101376.41;6104074;23;20021;-70
2023/05/11 04:45:55;;;;;;;64.22;37.55;;;;;;;10.78;100.00;101373.78;6080100;23;20024;-71
2023/05/11 04:48:21;;;;;;;62.88;36.95;;;;;;;10.79;100.00;101372.91;6078638;23;20424;-70
2023/05/11 04:50:46;;;;;;;58.05;36.70;;;;;;;10.79;100.00;101377.25;6079773;23;20060;-70
2023/05/11 04:53:12;;;;;;;64.78;39.40;;;;;;;10.77;100.00;101382.50;6103943;23;20018;-70
2023/05/11 04:55:37;;;;;;;62.42;38.17;;;;;;;10.79;100.00;101382.50;6104483;23;20009;-70
2023/05/11 04:58:03;;;;;;;55.97;36.65;;;;;;;10.80;100.00;101386.88;6104205;23;20084;-71
2023/05/11 05:00:28;;;;;;;59.03;36.47;;;;;;;10.82;100.00;101393.88;6080862;23;20100;-71
2023/05/11 05:02:54;;;;;;;57.85;36.25;;;;;;;10.80;100.00;101386.88;6080343;23;20005;-71
2023/05/11 05:05:19;;;;;;;57.35;33.28;;;;;;;10.86;100.00;101394.72;6103790;23;20016;-71
2023/05/11 05:07:45;;;;;;;58.40;36.33;;;;;;;10.83;100.00;101393.00;6079947;23;20029;-71
2023/05/11 05:10:11;;;;;;;61.55;37.55;;;;;;;10.87;100.00;101399.94;6078744;23;20014;-71
2023/05/11 05:12:40;;;;;;;62.55;38.10;;;;;;;10.83;100.00;101397.34;6104259;23;20020;-70
2023/05/11 05:15:06;;;;;;;68.45;40.00;;;;;;;10.85;100.00;101399.09;6127746;23;20079;-70
2023/05/11 05:17:32;;;;;;;63.00;38.13;;;;;;;10.88;100.00;101404.31;6079986;23;20019;-71
2023/05/11 05:19:57;;;;;;;66.20;38.53;;;;;;;10.91;100.00;101406.06;6079408;23;20032;-71
2023/05/11 05:22:24;;;;;;;67.32;40.70;;;;;;;10.94;100.00;101413.06;6103570;23;20009;-71
2023/05/11 05:24:49;;;;;;;74.13;41.70;;;;;;;10.94;100.00;101415.69;6079734;23;20021;-70
2023/05/11 05:27:15;;;;;;;74.75;43.25;;;;;;;10.96;100.00;101420.03;6080165;23;20016;-71
2023/05/11 05:29:40;;;;;;;76.50;46.25;;;;;;;10.98;100.00;101417.41;6078902;23;20026;-71
2023/05/11 05:32:06;;;;;;;83.80;50.88;;;;;;;10.97;100.00;101416.53;6104208;23;20040;-71
2023/05/11 05:34:31;;;;;;;81.43;46.08;;;;;;;11.01;100.00;101425.25;6078762;23;20032;-70
2023/05/11 05:36:56;;;;;;;81.38;46.58;;;;;;;11.05;100.00;101425.25;6079436;23;20400;-71
2023/05/11 05:39:22;;;;;;;78.97;45.00;;;;;;;11.03;100.00;101424.38;6103240;23;20092;-71
2023/05/11 05:41:47;;;;;;;82.05;45.30;;;;;;;11.06;100.00;101431.34;6104086;23;20013;-70
2023/05/11 05:44:12;;;;;;;78.05;44.35;;;;;;;11.08;100.00;101430.47;6103681;23;20071;-70
2023/05/11 05:46:38;;;;;;;83.93;45.90;;;;;;;11.06;100.00;101433.97;6079189;23;20092;-71
2023/05/11 05:49:04;;;;;;;78.82;44.63;;;;;;;11.06;100.00;101437.47;6103645;23;20009;-72
2023/05/11 05:51:30;;;;;;;76.68;43.88;;;;;;;11.06;100.00;101442.72;6102684;23;20021;-72
2023/05/11 05:53:55;;;;;;;80.22;44.97;;;;;;;11.04;100.00;101433.97;6079558;23;20013;-72
2023/05/11 05:56:21;;;;;;;83.28;45.03;;;;;;;11.03;100.00;101426.13;6101625;23;20317;-72
2023/05/11 05:58:47;;;;;;;86.43;45.88;;;;;;;11.08;100.00;101440.09;6127535;23;20009;-79
2023/05/11 06:01:15;;;;;;;84.70;45.38;;;;;;;11.15;100.00;101439.19;6078695;23;20423;-79
2023/05/11 06:03:40;;;;;;;83.78;44.83;;;;;;;11.20;100.00;101440.03;6127940;23;20005;-79
2023/05/11 06:06:06;;;;;;;87.57;48.15;;;;;;;11.30;100.00;101440.84;6079272;23;20080;-80
2023/05/11 06:08:32;;;;;;;81.85;45.38;;;;;;;11.36;100.00;101443.44;6102541;23;20009;-79
2023/05/11 06:10:57;;;;;;;89.07;48.58;;;;;;;11.43;100.00;101447.81;6079292;23;20020;-78
2023/05/11 06:13:23;;;;;;;84.07;47.17;;;;;;;11.50;100.00;101447.75;6126272;23;20427;-79
2023/05/11 06:15:49;;;;;;;77.32;44.65;;;;;;;11.49;100.00;101444.25;6103815;23;20396;-80
2023/05/11 06:18:15;;;;;;;80.93;45.92;;;;;;;11.60;100.00;101449.44;6103747;23;20010;-80
2023/05/11 06:20:41;;;;;;;75.03;46.30;;;;;;;11.58;100.00;101448.59;6127869;23;20013;-80
2023/05/11 06:23:06;;;;;;;78.35;47.45;;;;;;;11.67;100.00;101445.88;6127539;23;20009;-79
2023/05/11 06:25:35;;;;;;;76.35;44.60;;;;;;;11.71;100.00;101450.25;6079571;23;20009;-80
2023/05/11 06:28:01;;;;;;;76.38;45.83;;;;;;;11.81;100.00;101445.81;6127285;23;20026;-79
2023/05/11 06:30:26;;;;;;;77.93;46.40;;;;;;;11.84;100.00;101452.75;6128132;23;20010;-79
2023/05/11 06:32:52;;;;;;;84.75;48.13;;;;;;;11.93;100.00;101450.09;6103272;23;20005;-80
2023/05/11 06:35:17;;;;;;;77.45;46.13;;;;;;;11.89;100.00;101456.25;6105699;23;20020;-80
2023/05/11 06:37:43;;;;;;;72.93;45.35;;;;;;;12.02;100.00;101452.66;6105222;23;20018;-79
2023/05/11 06:40:09;;;;;;;77.15;45.55;;;;;;;12.04;100.00;101453.53;6128805;23;20009;-79
2023/05/11 06:42:34;;;;;;;76.07;47.08;;;;;;;12.13;100.00;101453.44;6129464;23;20627;-80
2023/05/11 06:45:00;;;;;;;83.28;45.70;;;;;;;12.23;100.00;101448.13;6105118;23;20092;-79
2023/05/11 06:47:25;;;;;;;78.57;46.47;;;;;;;12.26;100.00;101448.97;6105464;23;20018;-79
2023/05/11 06:49:51;;;;;;;72.90;45.17;;;;;;;12.28;100.00;101446.31;6081285;23;20017;-80
2023/05/11 06:52:16;;;;;;;79.50;47.90;;;;;;;12.29;100.00;101455.94;6104989;23;20013;-79
2023/05/11 06:54:42;;;;;;;78.88;45.60;;;;;;;12.26;100.00;101453.34;6080372;23;20424;-79
2023/05/11 06:57:07;;;;;;;90.32;48.58;;;;;;;12.35;100.00;101462.91;6129778;23;20372;-80
2023/05/11 06:59:32;;;;;;;80.55;49.13;;;;;;;12.38;100.00;101461.09;6080674;23;20092;-79
2023/05/11 07:01:58;;;;;;;89.45;49.38;;;;;;;12.38;100.00;101466.38;6105310;23;20005;-79
2023/05/11 07:04:24;;;;;;;83.97;48.97;;;;;;;12.48;100.00;101461.91;6129207;23;20316;-80
2023/05/11 07:06:49;;;;;;;79.13;48.30;;;;;;;12.45;100.00;101462.78;6081133;23;20036;-80
2023/05/11 07:09:15;;;;;;;78.78;47.22;;;;;;;12.43;100.00;101461.94;6080670;23;20010;-80
2023/05/11 07:11:41;;;;;;;83.55;50.80;;;;;;;12.46;100.00;101461.91;6105542;23;20009;-79
2023/05/11 07:14:07;;;;;;;78.40;49.22;;;;;;;12.50;100.00;101470.66;6080460;23;20376;-80
2023/05/11 07:16:37;;;;;;;80.72;49.17;;;;;;;12.50;100.00;101468.03;6105186;23;20013;-79
2023/05/11 07:19:07;;;;;;;80.45;47.92;;;;;;;12.52;100.00;101466.25;6105969;23;20009;-73
2023/05/11 07:21:35;;;;;;;87.68;51.13;;;;;;;12.63;100.00;101464.38;6129251;23;20009;-73
2023/05/11 07:24:02;;;;;;;84.07;49.92;;;;;;;12.75;100.00;101471.25;6129319;23;20005;-73
2023/05/11 07:26:27;;;;;;;82.82;49.65;;;;;;;12.87;100.00;101470.25;6105230;23;20006;-73
2023/05/11 07:28:53;;;;;;;83.03;50.90;;;;;;;12.97;100.00;101471.03;6104226;23;20028;-73
2023/05/11 07:31:18;;;;;;;82.60;49.88;;;;;;;13.11;100.00;101469.09;6080578;23;20017;-73
2023/05/11 07:33:43;;;;;;;81.57;48.15;;;;;;;13.31;100.00;101468.84;6104592;23;20017;-73
2023/05/11 07:36:09;;;;;;;80.97;48.50;;;;;;;13.34;100.00;101475.84;6080714;23;20005;-73
2023/05/11 07:38:35;;;;;;;74.47;45.28;;;;;;;13.22;100.00;101470.75;6080420;23;20105;-73
2023/05/11 07:41:00;;;;;;;78.03;47.08;;;;;;;13.30;100.00;101475.03;6104619;23;20009;-73
2023/05/11 07:43:26;;;;;;;70.15;44.85;;;;;;;13.29;99.96;101475.03;6103876;23;20321;-73
2023/05/11 07:45:51;;;;;;;69.25;44.67;;;;;;;13.37;100.00;101473.19;6080074;23;20016;-73
2023/05/11 07:48:17;;;;;;;75.30;46.63;;;;;;;13.42;100.00;101479.28;6105113;23;20016;-73
2023/05/11 07:50:43;;;;;;;71.18;44.97;;;;;;;13.41;98.13;101476.66;6104587;23;20020;-73
2023/05/11 07:53:09;;;;;;;75.20;47.35;;;;;;;13.60;100.00;101480.78;6080695;23;20141;-73
2023/05/11 07:55:34;;;;;;;70.88;44.72;;;;;;;13.54;97.02;101477.38;6104918;23;20001;-73
2023/05/11 07:58:00;;;;;;;80.68;47.83;;;;;;;13.71;99.65;101480.63;6080887;23;20379;-73
2023/05/11 08:00:26;;;;;;;72.57;44.97;;;;;;;13.74;98.23;101470.03;6129739;23;20028;-73
2023/05/11 08:02:52;;;;;;;73.60;45.22;;;;;;;13.82;97.65;101478.72;6105004;23;20112;-73
2023/05/11 08:05:18;;;;;;;75.82;46.72;;;;;;;14.06;100.00;101480.97;6105267;23;20376;-73
2023/05/11 08:07:44;;;;;;;79.28;49.97;;;;;;;14.23;100.00;101476.31;6104519;23;20021;-73
2023/05/11 08:10:11;;;;;;;79.10;51.25;;;;;;;14.31;99.59;101484.06;6104128;23;20088;-73
2023/05/11 08:12:36;;;;;;;70.47;46.40;;;;;;;14.41;98.37;101474.25;6081048;23;20343;-73
2023/05/11 08:15:03;;;;;;;66.75;44.75;;;;;;;14.27;95.64;101485.91;6155121;23;20008;-73
2023/05/11 08:17:29;;;;;;;65.47;42.80;;;;;;;14.24;94.05;101490.34;6104936;23;20441;-73
2023/05/11 08:19:55;;;;;;;64.85;40.80;;;;;;;14.29;94.55;101478.81;6129268;23;20114;-74
2023/05/11 08:22:21;;;;;;;60.10;41.22;;;;;;;14.38;95.42;101483.09;6104480;23;20024;-74
2023/05/11 08:24:46;;;;;;;62.70;41.13;;;;;;;14.19;92.31;101491.31;6079721;23;20017;-73
2023/05/11 08:27:13;;;;;;;61.53;41.40;;;;;;;14.18;94.22;101488.69;6104755;23;20076;-73
2023/05/11 08:29:38;;;;;;;63.05;42.03;;;;;;;14.23;93.93;101491.25;6104161;23;20033;-73
2023/05/11 08:32:04;;;;;;;59.40;40.97;;;;;;;14.24;93.65;101487.69;6104864;23;20010;-74
2023/05/11 08:34:29;;;;;;;60.28;40.97;;;;;;;14.15;91.37;101486.97;6080499;23;20348;-74
2023/05/11 08:36:55;;;;;;;62.85;40.85;;;;;;;14.13;93.71;101485.25;6104125;23;20009;-73
2023/05/11 08:39:21;;;;;;;65.35;41.75;;;;;;;14.13;91.66;101485.25;6079437;23;20112;-73
2023/05/11 08:41:49;;;;;;;62.38;42.28;;;;;;;14.15;94.37;101484.34;6129042;23;20017;-73
2023/05/11 08:44:16;;;;;;;60.58;40.00;;;;;;;14.25;93.53;101485.06;6128337;23;20013;-74
2023/05/11 08:46:44;;;;;;;60.67;40.92;;;;;;;14.19;93.14;101483.41;6080971;23;20037;-74
2023/05/11 08:49:10;;;;;;;69.90;43.40;;;;;;;14.16;92.74;101490.47;6128665;23;20010;-73
2023/05/11 08:51:36;;;;;;;69.65;44.33;;;;;;;14.29;93.21;101478.81;6127636;23;20340;-73
2023/05/11 08:54:02;;;;;;;68.40;44.53;;;;;;;14.24;91.85;101482.44;6079968;23;20009;-73
2023/05/11 08:56:29;;;;;;;67.25;43.78;;;;;;;14.26;92.43;101483.28;6128422;23;20052;-73
2023/05/11 08:58:56;;;;;;;61.50;41.97;;;;;;;14.27;89.88;101490.31;6103788;23;20010;-75
2023/05/11 09:01:22;;;;;;;59.22;39.20;;;;;;;14.18;88.72;101479.03;6129096;23;20044;-74
2023/05/11 09:03:49;;;;;;;62.85;39.38;;;;;;;14.24;89.04;101491.22;6103607;23;20009;-74
2023/05/11 09:06:16;;;;;;;62.95;41.15;;;;;;;14.53;93.43;101487.22;6154419;23;20060;-74
2023/05/11 09:08:43;;;;;;;63.80;39.92;;;;;;;14.40;89.37;101486.56;6128132;23;20056;-74
2023/05/11 09:11:09;;;;;;;63.88;41.58;;;;;;;14.54;90.67;101496.88;6104131;23;20117;-74
2023/05/11 09:13:35;;;;;;;75.50;46.45;;;;;;;14.56;90.84;101493.28;6127318;23;20009;-73
2023/05/11 09:16:01;;;;;;;72.75;44.70;;;;;;;14.70;90.63;101495.72;6080326;23;20013;-74
2023/05/11 09:18:27;;;;;;;71.55;43.80;;;;;;;14.92;92.06;101486.53;6154735;23;20028;-74
2023/05/11 09:20:52;;;;;;;64.45;42.70;;;;;;;15.09;92.29;101499.41;6079804;23;20377;-74
2023/05/11 09:23:25;;;;;;;76.82;46.50;;;;;;;15.45;95.38;101495.13;6103571;23;20017;-74
2023/05/11 09:25:50;;;;;;;72.00;43.95;;;;;;;15.57;92.29;101497.50;6128132;23;20339;-74
2023/05/11 09:28:20;;;;;;;67.47;43.05;;;;;;;15.75;88.85;101500.63;6079463;23;20116;-74
2023/05/11 09:30:45;;;;;;;71.43;44.47;;;;;;;15.64;84.46;101502.63;6128177;23;20035;-74
2023/05/11 09:33:11;;;;;;;64.00;42.30;;;;;;;15.58;86.12;101490.44;6103843;23;20009;-74
2023/05/11 09:35:36;;;;;;;68.45;42.13;;;;;;;15.60;82.88;101496.53;6154276;23;20002;-74
2023/05/11 09:38:09;;;;;;;68.05;41.63;;;;;;;15.63;85.60;101500.88;6127683;23;20020;-74
2023/05/11 09:40:36;;;;;;;66.88;42.55;;;;;;;15.59;85.12;101498.31;6127942;23;20415;-74
2023/05/11 09:43:16;;;;;;;65.32;42.80;;;;;;;15.68;83.85;101502.53;6127816;23;20344;-74
2023/05/11 09:45:46;;;;;;;71.57;44.97;;;;;;;15.79;85.14;101493.50;6128235;23;20331;-74
2023/05/11 09:48:18;;;;;;;65.57;42.75;;;;;;;15.87;84.05;101503.00;6154379;23;20012;-74
2023/05/11 09:50:43;;;;;;;68.15;44.92;;;;;;;15.90;86.61;101512.63;6127741;23;20005;-75
2023/05/11 09:53:09;;;;;;;74.78;45.92;;;;;;;15.97;84.80;101502.81;6127429;23;20056;-74
2023/05/11 09:55:35;;;;;;;67.38;42.78;;;;;;;15.99;82.78;101501.88;6079780;23;20005;-74
2023/05/11 09:58:01;;;;;;;68.28;44.05;;;;;;;16.30;87.86;101497.59;6103341;23;20005;-74
2023/05/11 10:00:26;;;;;;;62.67;40.88;;;;;;;16.24;81.84;101499.47;6128592;23;20474;-74
2023/05/11 10:03:04;;;;;;;62.75;39.88;;;;;;;16.40;83.03;101504.38;6127329;23;20352;-75
2023/05/11 10:05:32;;;;;;;65.15;41.80;;;;;;;16.70;81.94;101500.06;6127713;23;20028;-75
2023/05/11 10:08:02;;;;;;;71.15;43.47;;;;;;;16.61;79.22;101503.81;6101764;23;20309;-74
2023/05/11 10:10:29;;;;;;;69.07;43.40;;;;;;;16.73;79.05;101501.75;6105502;23;20096;-75
2023/05/11 10:12:57;;;;;;;70.03;42.30;;;;;;;16.77;78.75;101499.00;6080658;23;20013;-75
2023/05/11 10:15:27;;;;;;;71.13;42.83;;;;;;;16.87;81.81;101494.31;6129669;23;20005;-75
2023/05/11 10:17:57;;;;;;;69.78;41.33;;;;;;;16.85;78.29;101498.78;6106608;23;20028;-75
2023/05/11 10:20:24;;;;;;;63.20;40.40;;;;;;;16.70;76.35;101493.91;6128583;23;20001;-74
2023/05/11 10:22:54;;;;;;;62.63;39.47;;;;;;;16.60;75.72;101494.13;6128750;23;20071;-74
2023/05/11 10:25:25;;;;;;;60.85;40.85;;;;;;;16.45;75.26;101491.91;6129519;23;20387;-76
2023/05/11 10:27:52;;;;;;;59.13;39.47;;;;;;;16.60;81.42;101493.28;6129688;23;20071;-76
2023/05/11 10:30:17;;;;;;;66.47;40.17;;;;;;;16.62;78.69;101492.34;6129281;23;20478;-76
2023/05/11 10:32:47;;;;;;;68.10;41.92;;;;;;;16.65;79.13;101496.69;6105560;23;20080;-75
2023/05/11 10:35:13;;;;;;;61.38;41.28;;;;;;;16.85;77.43;101497.91;6082490;23;20037;-76
2023/05/11 10:37:41;;;;;;;67.57;42.28;;;;;;;17.23;80.28;101498.66;6129584;23;20045;-81
2023/05/11 10:40:08;;;;;;;57.90;38.92;;;;;;;17.22;75.45;101492.47;6104396;23;20340;-80
2023/05/11 10:42:39;;;;;;;64.70;43.17;;;;;;;17.69;79.31;101496.41;6080468;23;20012;-76
2023/05/11 10:45:37;;;;;;;64.95;40.92;;;;;;;17.93;79.08;101489.47;6128703;23;20096;-76
2023/05/11 10:48:30;;;;;;;61.42;40.20;;;;;;;18.06;75.80;101504.06;6029724;23;20017;-75
2023/05/11 10:51:51;;;;;;;64.05;39.83;;;;;;;17.93;76.31;101490.34;6128762;23;20089;-76
2023/05/11 10:54:35;;;;;;;62.53;41.85;;;;;;;17.76;74.02;101498.81;6035245;23;20082;-74
2023/05/11 10:57:38;;;;;;;63.53;41.45;;;;;;;17.83;75.80;101494.19;6129269;23;20001;-75
2023/05/11 11:00:13;;;;;;;60.88;39.83;;;;;;;17.69;72.79;101497.25;6140195;23;20025;-73
2023/05/11 11:02:39;;;;;;;62.13;40.42;;;;;;;17.62;73.11;101485.13;6155918;22;20025;-77
2023/05/11 11:05:09;;;;;;;66.93;42.08;;;;;;;17.31;71.06;101497.50;6111280;22;20404;-78
2023/05/11 11:08:02;;;;;;;70.90;43.55;;;;;;;17.38;74.91;101492.03;6113478;22;20471;-76
2023/05/11 11:10:36;;;;;;;64.70;39.03;;;;;;;17.38;74.17;101492.88;6143599;23;20009;-73
2023/05/11 11:13:05;;;;;;;59.97;39.40;;;;;;;17.36;71.79;101493.88;6146620;22;20576;-77
2023/05/11 11:20:57;;;;;;;56.58;37.97;;;;;;;16.78;70.24;101486.63;6187390;22;21572;31
2023/05/11 11:25:52;;;;;;;68.50;38.58;;;;;;;17.11;75.94;101486.59;6183085;22;19926;-73
2023/05/11 11:28:18;;;;;;;61.22;39.65;;;;;;;16.94;74.72;101480.03;6166389;23;20089;-72
2023/05/11 11:30:43;;;;;;;58.92;37.50;;;;;;;16.97;73.00;101477.28;6136168;23;20044;-77
2023/05/11 11:33:11;;;;;;;61.10;40.15;;;;;;;16.78;72.08;101476.91;6115767;22;20119;-76
2023/05/11 11:35:40;;;;;;;60.28;39.13;;;;;;;17.03;77.10;101480.69;6164234;22;20024;-79
2023/05/11 11:38:17;;;;;;;59.30;38.25;;;;;;;17.21;75.27;101480.16;6163241;23;20442;-77
2023/05/11 11:40:53;;;;;;;55.00;36.72;;;;;;;17.31;74.25;101483.38;6144284;23;20028;-73
2023/05/11 11:43:24;;;;;;;55.08;35.65;;;;;;;17.27;72.06;101479.09;6135907;23;20028;-74
2023/05/11 11:46:02;;;;;;;55.63;35.13;;;;;;;17.53;72.74;101480.97;6157100;22;20025;-76
2023/05/11 11:48:35;;;;;;;53.88;34.72;;;;;;;17.69;72.36;101480.50;6089628;22;20048;-74